Time;durP1;ratioP1;P1;durP2;ratioP2;P2;SDS_P1;SDS_P2;PMS_P1;PMS_P2;Temp;Humidity;BMP_temperature;BMP_pressure;BME280_temperature;BME280_humidity;BME280_pressure;Samples;Min_cycle;Max_cycle;Signal;HPM_P1;HPM_P2
2021/08/01 00:00:50;;;;;;;;;;;14.50;99.90;;;;;;5095632;28;19924;-84
2021/08/01 00:03:18;;;;;;;;;;;14.50;99.90;;;;;;5096050;28;19928;-84
2021/08/01 00:05:46;;;;;;;;;;;14.50;99.90;;;;;;5095607;28;20026;-83
2021/08/01 00:08:15;;;;;;;;;;;14.50;99.90;;;;;;5095717;28;19930;-84
2021/08/01 00:10:43;;;;;;;;;;;14.50;99.90;;;;;;5095689;28;19934;-84
2021/08/01 00:13:11;;;;;;;;;;;14.50;99.90;;;;;;5095454;28;20368;-83
2021/08/01 00:15:42;;;;;;;;;;;14.50;99.90;;;;;;5094687;28;21196;-84
2021/08/01 00:18:11;;;;;;;;;;;14.50;99.90;;;;;;5095677;28;19924;-84
2021/08/01 00:20:40;;;;;;;;;;;14.60;99.90;;;;;;5095499;28;19946;-84
2021/08/01 00:23:08;;;;;;;;;;;14.50;99.90;;;;;;5095322;28;19932;-84
2021/08/01 00:25:37;;;;;;;;;;;14.50;99.90;;;;;;5095499;28;19931;-84
2021/08/01 00:28:07;;;;;;;;;;;14.50;99.90;;;;;;5095418;28;19935;-82
2021/08/01 00:30:34;;;;;;;;;;;14.40;99.90;;;;;;5095351;28;20341;-84
2021/08/01 00:33:04;;;;;;;;;;;14.40;99.90;;;;;;5095313;28;19935;-84
2021/08/01 00:35:34;;;;;;;;;;;14.40;99.90;;;;;;5095563;28;19924;-85
2021/08/01 00:38:02;;;;;;;;;;;14.40;99.90;;;;;;5094627;28;19935;-84
2021/08/01 00:40:33;;;;;;;;;;;14.40;99.90;;;;;;5095346;28;19934;-84
2021/08/01 00:43:01;;;;;;;;;;;14.30;99.90;;;;;;5095157;28;20269;-84
2021/08/01 00:45:29;;;;;;;;;;;14.30;99.90;;;;;;5095226;28;20001;-84
2021/08/01 00:47:58;;;;;;;;;;;14.30;99.90;;;;;;5095257;28;19954;-84
2021/08/01 00:50:27;;;;;;;;;;;14.40;99.90;;;;;;5095068;28;19924;-84
2021/08/01 00:52:54;;;;;;;;;;;14.40;99.90;;;;;;5094762;28;19931;-84
2021/08/01 00:55:22;;;;;;;;;;;14.40;99.90;;;;;;5095129;28;19935;-84
2021/08/01 00:57:50;;;;;;;;;;;14.40;99.90;;;;;;5095055;28;19924;-84
2021/08/01 01:00:27;;;;;;;;;;;14.40;99.90;;;;;;5094979;28;19938;-84
2021/08/01 01:02:54;;;;;;;;;;;14.40;99.90;;;;;;5095279;28;19924;-84
2021/08/01 01:05:22;;;;;;;;;;;14.40;99.90;;;;;;5094991;28;19925;-84
2021/08/01 01:07:52;;;;;;;;;;;14.40;99.90;;;;;;5094050;28;19924;-84
2021/08/01 01:10:21;;;;;;;;;;;14.40;99.90;;;;;;5095155;28;19924;-84
2021/08/01 01:12:49;;;;;;;;;;;14.40;99.90;;;;;;5094806;28;19927;-84
2021/08/01 01:15:17;;;;;;;;;;;14.30;99.90;;;;;;5095013;28;19924;-84
2021/08/01 01:17:45;;;;;;;;;;;14.30;99.90;;;;;;5095094;28;19946;-84
2021/08/01 01:20:19;;;;;;;;;;;14.40;99.90;;;;;;5094757;28;19924;-84
2021/08/01 01:22:47;;;;;;;;;;;14.30;99.90;;;;;;5094769;28;19928;-84
2021/08/01 01:25:18;;;;;;;;;;;14.30;99.90;;;;;;5094906;28;19924;-84
2021/08/01 01:27:45;;;;;;;;;;;14.30;99.90;;;;;;5094903;28;19935;-82
2021/08/01 01:30:12;;;;;;;;;;;14.30;99.90;;;;;;5094557;28;19924;-84
2021/08/01 01:32:42;;;;;;;;;;;14.30;99.90;;;;;;5094718;28;20005;-84
2021/08/01 01:35:10;;;;;;;;;;;14.30;99.90;;;;;;5094765;28;19950;-84
2021/08/01 01:37:38;;;;;;;;;;;14.30;99.90;;;;;;5094872;28;19924;-83
2021/08/01 01:40:05;;;;;;;;;;;14.30;99.90;;;;;;5094684;28;20357;-84
2021/08/01 01:42:32;;;;;;;;;;;14.30;99.90;;;;;;5094672;28;20416;-84
2021/08/01 01:44:59;;;;;;;;;;;14.30;99.90;;;;;;5094598;28;19924;-84
2021/08/01 01:47:26;;;;;;;;;;;14.30;99.90;;;;;;5094520;28;19924;-84
2021/08/01 01:49:54;;;;;;;;;;;14.30;99.90;;;;;;5098202;28;19924;-84
2021/08/01 01:52:21;;;;;;;;;;;14.30;99.90;;;;;;5098405;28;19978;-84
2021/08/01 01:54:49;;;;;;;;;;;14.30;99.90;;;;;;5097877;28;20341;-84
2021/08/01 01:57:16;;;;;;;;;;;14.20;99.90;;;;;;5098269;28;19924;-84
2021/08/01 01:59:43;;;;;;;;;;;14.20;99.90;;;;;;5098039;28;20265;-84
2021/08/01 02:02:10;;;;;;;;;;;14.20;99.90;;;;;;5097917;28;19930;-84
2021/08/01 02:04:37;;;;;;;;;;;14.20;99.90;;;;;;5097855;28;19924;-84
2021/08/01 02:07:05;;;;;;;;;;;14.20;99.90;;;;;;5098105;28;19931;-84
2021/08/01 02:09:33;;;;;;;;;;;14.10;99.90;;;;;;5098226;28;19934;-84
2021/08/01 02:12:04;;;;;;;;;;;14.10;99.90;;;;;;5097844;28;20365;-84
2021/08/01 02:14:32;;;;;;;;;;;14.10;99.90;;;;;;5097639;28;19924;-84
2021/08/01 02:17:03;;;;;;;;;;;14.10;99.90;;;;;;5097739;28;19924;-84
2021/08/01 02:19:29;;;;;;;;;;;14.10;99.90;;;;;;5097762;28;19925;-84
2021/08/01 02:21:56;;;;;;;;;;;14.10;99.90;;;;;;5097838;28;19924;-84
2021/08/01 02:24:23;;;;;;;;;;;14.10;99.90;;;;;;5097679;28;19928;-84
2021/08/01 02:26:50;;;;;;;;;;;14.00;99.90;;;;;;5097406;28;20358;-84
2021/08/01 02:29:18;;;;;;;;;;;14.10;99.90;;;;;;5097442;28;19924;-84
2021/08/01 02:31:45;;;;;;;;;;;14.10;99.90;;;;;;5097500;28;19932;-84
2021/08/01 02:34:12;;;;;;;;;;;14.10;99.90;;;;;;5097420;28;19924;-84
2021/08/01 02:36:39;;;;;;;;;;;14.10;99.90;;;;;;5097379;28;19928;-84
2021/08/01 02:39:05;;;;;;;;;;;14.10;99.90;;;;;;5097213;28;19924;-84
2021/08/01 02:41:33;;;;;;;;;;;14.10;99.90;;;;;;5097252;28;19924;-84
2021/08/01 02:44:01;;;;;;;;;;;14.10;99.90;;;;;;5097235;28;20380;-84
2021/08/01 02:46:29;;;;;;;;;;;14.10;99.90;;;;;;5097277;28;19939;-84
2021/08/01 02:48:57;;;;;;;;;;;14.10;99.90;;;;;;5097028;28;19942;-84
2021/08/01 02:51:24;;;;;;;;;;;14.10;99.90;;;;;;5096978;28;19925;-84
2021/08/01 02:53:52;;;;;;;;;;;14.00;99.90;;;;;;5096975;28;19935;-84
2021/08/01 02:56:20;;;;;;;;;;;14.10;99.90;;;;;;5096970;28;19924;-84
2021/08/01 02:58:46;;;;;;;;;;;14.00;99.90;;;;;;5097002;28;20313;-84
2021/08/01 03:01:13;;;;;;;;;;;14.00;99.90;;;;;;5096050;28;19924;-83
2021/08/01 03:03:42;;;;;;;;;;;14.00;99.90;;;;;;5096725;28;19934;-84
2021/08/01 03:06:09;;;;;;;;;;;14.00;99.90;;;;;;5096777;28;19924;-84
2021/08/01 03:08:36;;;;;;;;;;;14.00;99.90;;;;;;5096676;28;19935;-84
2021/08/01 03:11:03;;;;;;;;;;;14.00;99.90;;;;;;5096565;28;19935;-84
2021/08/01 03:13:30;;;;;;;;;;;14.00;99.90;;;;;;5096613;28;19924;-84
2021/08/01 03:15:57;;;;;;;;;;;14.00;99.90;;;;;;5096669;28;19924;-84
2021/08/01 03:18:23;;;;;;;;;;;14.00;99.90;;;;;;5096490;28;20375;-84
2021/08/01 03:20:52;;;;;;;;;;;14.00;99.90;;;;;;5096708;28;19934;-84
2021/08/01 03:23:18;;;;;;;;;;;14.00;99.90;;;;;;5096346;28;19928;-84
2021/08/01 03:25:45;;;;;;;;;;;14.00;99.90;;;;;;5096293;28;20011;-84
2021/08/01 03:28:12;;;;;;;;;;;14.00;99.90;;;;;;5096341;28;19924;-84
2021/08/01 03:30:39;;;;;;;;;;;14.00;99.90;;;;;;5096382;28;19932;-84
2021/08/01 03:33:06;;;;;;;;;;;13.90;99.90;;;;;;5096304;28;19924;-84
2021/08/01 03:35:33;;;;;;;;;;;14.00;99.90;;;;;;5096374;28;20338;-84
2021/08/01 03:38:01;;;;;;;;;;;14.00;99.90;;;;;;5096147;28;19938;-84
2021/08/01 03:40:28;;;;;;;;;;;14.00;99.90;;;;;;5096141;28;19934;-84
2021/08/01 03:42:54;;;;;;;;;;;14.00;99.90;;;;;;5096226;28;20266;-84
2021/08/01 03:45:21;;;;;;;;;;;14.00;99.90;;;;;;5095984;28;19924;-84
2021/08/01 03:47:48;;;;;;;;;;;14.00;99.90;;;;;;5096115;28;19928;-84
2021/08/01 03:50:15;;;;;;;;;;;14.00;99.90;;;;;;5095884;28;20281;-84
2021/08/01 03:52:42;;;;;;;;;;;14.00;99.90;;;;;;5095650;28;19930;-83
2021/08/01 03:55:11;;;;;;;;;;;13.90;99.90;;;;;;5096109;28;19924;-84
2021/08/01 03:57:38;;;;;;;;;;;13.90;99.90;;;;;;5095720;28;20272;-84
2021/08/01 04:00:06;;;;;;;;;;;13.90;99.90;;;;;;5095844;28;20315;-84
2021/08/01 04:02:35;;;;;;;;;;;13.80;99.90;;;;;;5095748;28;19924;-84
2021/08/01 04:05:01;;;;;;;;;;;13.80;99.90;;;;;;5095861;28;19924;-84
2021/08/01 04:07:28;;;;;;;;;;;13.80;99.90;;;;;;5095801;28;20376;-84
2021/08/01 04:09:55;;;;;;;;;;;13.70;99.90;;;;;;5095480;28;19935;-84
2021/08/01 04:12:23;;;;;;;;;;;13.70;99.90;;;;;;5095618;28;19924;-84
2021/08/01 04:14:50;;;;;;;;;;;13.60;99.90;;;;;;5095497;28;19924;-84
2021/08/01 04:17:18;;;;;;;;;;;13.60;99.90;;;;;;5095438;28;19924;-84
2021/08/01 04:19:45;;;;;;;;;;;13.50;99.90;;;;;;5095704;28;19924;-84
2021/08/01 04:22:11;;;;;;;;;;;13.50;99.90;;;;;;5095493;28;19946;-84
2021/08/01 04:24:38;;;;;;;;;;;13.50;99.90;;;;;;5095710;28;19928;-84
2021/08/01 04:27:05;;;;;;;;;;;13.40;99.90;;;;;;5095384;28;20265;-84
2021/08/01 04:29:34;;;;;;;;;;;13.40;99.90;;;;;;5095341;28;19931;-84
2021/08/01 04:32:00;;;;;;;;;;;13.30;99.90;;;;;;5095411;28;19924;-84
2021/08/01 04:34:27;;;;;;;;;;;13.30;99.90;;;;;;5095171;28;19934;-83
2021/08/01 04:36:54;;;;;;;;;;;13.20;99.90;;;;;;5095246;28;20341;-83
2021/08/01 04:39:21;;;;;;;;;;;13.20;99.90;;;;;;5095210;28;19924;-84
2021/08/01 04:41:48;;;;;;;;;;;13.10;99.90;;;;;;5095654;28;19924;-84
2021/08/01 04:44:14;;;;;;;;;;;13.10;99.90;;;;;;5095309;28;19924;-84
2021/08/01 04:46:43;;;;;;;;;;;13.10;99.90;;;;;;5095190;28;20268;-84
2021/08/01 04:49:09;;;;;;;;;;;13.00;99.90;;;;;;5095013;28;19939;-84
2021/08/01 04:51:36;;;;;;;;;;;13.00;99.90;;;;;;5095276;28;19935;-84
2021/08/01 04:54:03;;;;;;;;;;;13.00;99.90;;;;;;5094914;28;20265;-84
2021/08/01 04:56:30;;;;;;;;;;;13.00;99.90;;;;;;5095147;28;19924;-84
2021/08/01 04:58:57;;;;;;;;;;;13.00;99.90;;;;;;5095247;28;19957;-84
2021/08/01 05:01:24;;;;;;;;;;;13.10;99.90;;;;;;5095039;28;19934;-84
2021/08/01 05:03:52;;;;;;;;;;;13.10;99.90;;;;;;5094888;28;19930;-84
2021/08/01 05:06:19;;;;;;;;;;;13.10;99.90;;;;;;5095304;28;19924;-84
2021/08/01 05:08:46;;;;;;;;;;;13.20;99.90;;;;;;5095225;28;19939;-84
2021/08/01 05:11:12;;;;;;;;;;;13.20;99.90;;;;;;5094847;28;19924;-84
2021/08/01 05:13:39;;;;;;;;;;;13.30;99.90;;;;;;5094913;28;19927;-84
2021/08/01 05:16:06;;;;;;;;;;;13.30;99.90;;;;;;5094840;28;20353;-84
2021/08/01 05:18:33;;;;;;;;;;;13.30;99.90;;;;;;5094799;28;19924;-83
2021/08/01 05:21:01;;;;;;;;;;;13.30;99.90;;;;;;5094871;28;19927;-84
2021/08/01 05:23:28;;;;;;;;;;;13.30;99.90;;;;;;5096445;28;20258;-84
2021/08/01 05:25:56;;;;;;;;;;;13.40;99.90;;;;;;5098734;28;19924;-84
2021/08/01 05:28:23;;;;;;;;;;;13.40;99.90;;;;;;5098517;28;19928;-84
2021/08/01 05:30:50;;;;;;;;;;;13.40;99.90;;;;;;5098558;28;19928;-83
2021/08/01 05:33:17;;;;;;;;;;;13.50;99.90;;;;;;5098531;28;19935;-84
2021/08/01 05:35:44;;;;;;;;;;;13.50;99.90;;;;;;5098714;28;19946;-83
2021/08/01 05:38:12;;;;;;;;;;;13.50;99.90;;;;;;5098507;28;19931;-84
2021/08/01 05:40:42;;;;;;;;;;;13.50;99.90;;;;;;5098531;28;20037;-84
2021/08/01 05:43:09;;;;;;;;;;;13.60;99.90;;;;;;5098457;28;19928;-83
2021/08/01 05:45:36;;;;;;;;;;;13.60;99.90;;;;;;5098394;28;19924;-84
2021/08/01 05:48:03;;;;;;;;;;;13.70;99.90;;;;;;5098200;28;19928;-83
2021/08/01 05:50:30;;;;;;;;;;;13.70;99.90;;;;;;5098336;28;19938;-84
2021/08/01 05:52:57;;;;;;;;;;;13.70;99.90;;;;;;5097921;28;19923;-84
2021/08/01 05:55:25;;;;;;;;;;;13.70;99.90;;;;;;5098165;28;19927;-84
2021/08/01 05:57:52;;;;;;;;;;;13.80;99.90;;;;;;5098189;28;20261;-84
2021/08/01 06:00:18;;;;;;;;;;;13.80;99.90;;;;;;5098163;28;19924;-84
2021/08/01 06:02:45;;;;;;;;;;;13.80;99.90;;;;;;5098057;28;19928;-84
2021/08/01 06:05:12;;;;;;;;;;;13.80;99.90;;;;;;5098134;28;19924;-84
2021/08/01 06:07:39;;;;;;;;;;;13.80;99.90;;;;;;5098018;28;19924;-84
2021/08/01 06:10:06;;;;;;;;;;;13.80;99.90;;;;;;5097763;28;20238;-84
2021/08/01 06:12:35;;;;;;;;;;;13.80;99.90;;;;;;5097814;28;19924;-84
2021/08/01 06:15:02;;;;;;;;;;;13.90;99.90;;;;;;5097975;28;19967;-84
2021/08/01 06:17:29;;;;;;;;;;;13.90;99.90;;;;;;5097716;28;19924;-84
2021/08/01 06:19:56;;;;;;;;;;;13.90;99.90;;;;;;5097791;28;19924;-84
2021/08/01 06:22:23;;;;;;;;;;;13.90;99.90;;;;;;5097634;28;20044;-84
2021/08/01 06:24:50;;;;;;;;;;;13.90;99.90;;;;;;5097554;28;19924;-84
2021/08/01 06:27:17;;;;;;;;;;;13.80;99.90;;;;;;5097639;28;19924;-84
2021/08/01 06:29:45;;;;;;;;;;;13.70;99.90;;;;;;5097529;28;19928;-84
2021/08/01 06:32:12;;;;;;;;;;;13.70;99.90;;;;;;5097663;28;19924;-84
2021/08/01 06:34:38;;;;;;;;;;;13.60;99.90;;;;;;5096270;28;20337;-84
2021/08/01 06:37:05;;;;;;;;;;;13.60;99.90;;;;;;5097461;28;19924;-84
2021/08/01 06:39:32;;;;;;;;;;;13.50;99.90;;;;;;5097269;28;19924;-84
2021/08/01 06:41:59;;;;;;;;;;;13.40;99.90;;;;;;5097353;28;19924;-85
2021/08/01 06:44:26;;;;;;;;;;;13.40;99.90;;;;;;5097392;28;19931;-85
2021/08/01 06:46:54;;;;;;;;;;;13.40;99.90;;;;;;5097116;28;20172;-85
2021/08/01 06:49:21;;;;;;;;;;;13.50;99.90;;;;;;5097356;28;19928;-86
2021/08/01 06:51:48;;;;;;;;;;;13.50;99.90;;;;;;5097218;28;20241;-86
2021/08/01 06:54:15;;;;;;;;;;;13.50;99.90;;;;;;5096781;28;20364;-86
2021/08/01 06:56:41;;;;;;;;;;;13.60;99.90;;;;;;5096844;28;19934;-85
2021/08/01 06:59:08;;;;;;;;;;;13.60;99.90;;;;;;5096911;28;19924;-85
2021/08/01 07:01:37;;;;;;;;;;;13.50;99.90;;;;;;5096764;28;19934;-85
2021/08/01 07:04:06;;;;;;;;;;;13.50;99.90;;;;;;5097010;28;19924;-86
2021/08/01 07:06:33;;;;;;;;;;;13.60;99.90;;;;;;5096825;28;19924;-85
2021/08/01 07:08:59;;;;;;;;;;;13.60;99.90;;;;;;5096968;28;19935;-86
2021/08/01 07:11:26;;;;;;;;;;;13.60;99.90;;;;;;5096558;28;19925;-86
2021/08/01 07:13:53;;;;;;;;;;;13.60;99.90;;;;;;5096874;28;19927;-85
2021/08/01 07:16:20;;;;;;;;;;;13.60;99.90;;;;;;5096780;28;19924;-85
2021/08/01 07:18:47;;;;;;;;;;;13.70;99.90;;;;;;5096462;28;20354;-86
2021/08/01 07:21:15;;;;;;;;;;;13.70;99.90;;;;;;5096658;28;19942;-86
2021/08/01 07:23:42;;;;;;;;;;;13.70;99.90;;;;;;5096684;28;19928;-86
2021/08/01 07:26:09;;;;;;;;;;;13.70;99.90;;;;;;5096505;28;19935;-86
2021/08/01 07:28:35;;;;;;;;;;;13.70;99.90;;;;;;5096402;28;19924;-86
2021/08/01 07:31:02;;;;;;;;;;;13.60;99.90;;;;;;5096385;28;19974;-86
2021/08/01 07:33:29;;;;;;;;;;;13.60;99.90;;;;;;5096511;28;19934;-85
2021/08/01 07:35:57;;;;;;;;;;;13.60;99.90;;;;;;5096445;28;20334;-85
2021/08/01 07:38:26;;;;;;;;;;;13.70;99.90;;;;;;5096289;28;19935;-86
2021/08/01 07:40:53;;;;;;;;;;;13.70;99.90;;;;;;5096187;28;20353;-85
2021/08/01 07:43:19;;;;;;;;;;;13.60;99.90;;;;;;5096229;28;19924;-85
2021/08/01 07:45:46;;;;;;;;;;;13.70;99.90;;;;;;5095677;28;19924;-85
2021/08/01 07:48:13;;;;;;;;;;;13.70;99.90;;;;;;5096084;28;19924;-85
2021/08/01 07:50:40;;;;;;;;;;;13.70;99.90;;;;;;5096034;28;19924;-85
2021/08/01 07:53:07;;;;;;;;;;;13.70;99.90;;;;;;5095819;28;19924;-85
2021/08/01 07:55:35;;;;;;;;;;;13.70;99.90;;;;;;5095996;28;19928;-86
2021/08/01 07:58:02;;;;;;;;;;;13.70;99.90;;;;;;5096049;28;20257;-85
2021/08/01 08:00:29;;;;;;;;;;;13.70;99.90;;;;;;5095826;28;19924;-85
2021/08/01 08:02:55;;;;;;;;;;;13.70;99.90;;;;;;5095703;28;19934;-86
2021/08/01 08:05:22;;;;;;;;;;;13.70;99.90;;;;;;5095885;28;19950;-87
2021/08/01 08:07:49;;;;;;;;;;;13.70;99.90;;;;;;5095862;28;19931;-89
2021/08/01 08:10:16;;;;;;;;;;;13.70;99.90;;;;;;5095823;28;19924;-89
2021/08/01 08:12:44;;;;;;;;;;;13.70;99.90;;;;;;5096003;28;19935;-89
2021/08/01 08:15:12;;;;;;;;;;;13.80;99.90;;;;;;5095898;28;19924;-89
2021/08/01 08:17:39;;;;;;;;;;;13.90;99.90;;;;;;5095802;28;19924;-88
2021/08/01 08:20:06;;;;;;;;;;;14.00;99.90;;;;;;5095785;28;19924;-89
2021/08/01 08:22:33;;;;;;;;;;;14.10;99.90;;;;;;5095518;28;19932;-89
2021/08/01 08:25:00;;;;;;;;;;;14.30;99.90;;;;;;5095549;28;19936;-88
2021/08/01 08:27:27;;;;;;;;;;;14.40;99.90;;;;;;5095613;28;19924;-88
2021/08/01 08:29:56;;;;;;;;;;;14.60;99.90;;;;;;5095399;28;19928;-88
2021/08/01 08:32:24;;;;;;;;;;;14.90;99.90;;;;;;5095207;28;19928;-87
2021/08/01 08:34:51;;;;;;;;;;;15.10;99.90;;;;;;5095151;28;19930;-87
2021/08/01 08:37:19;;;;;;;;;;;15.20;99.90;;;;;;5095227;28;19935;-87
2021/08/01 08:39:48;;;;;;;;;;;15.20;99.90;;;;;;5095294;28;19934;-86
2021/08/01 08:42:16;;;;;;;;;;;15.20;99.90;;;;;;5095237;28;20271;-87
2021/08/01 08:44:44;;;;;;;;;;;15.20;99.90;;;;;;5095149;28;19924;-87
2021/08/01 08:47:18;;;;;;;;;;;15.10;99.90;;;;;;5095185;28;19924;-86
2021/08/01 08:49:50;;;;;;;;;;;15.00;99.90;;;;;;5095139;28;19980;-86
2021/08/01 08:52:27;;;;;;;;;;;15.00;99.90;;;;;;5095071;28;19942;-86
2021/08/01 08:54:56;;;;;;;;;;;14.90;99.90;;;;;;5095017;28;19935;-86
2021/08/01 08:57:26;;;;;;;;;;;14.80;99.90;;;;;;5095013;28;19928;-86
2021/08/01 08:59:55;;;;;;;;;;;14.80;99.90;;;;;;5099156;28;19931;-85
2021/08/01 09:02:25;;;;;;;;;;;14.80;99.90;;;;;;5099338;28;19996;-85
2021/08/01 09:04:53;;;;;;;;;;;14.90;99.90;;;;;;5099055;28;19924;-85
2021/08/01 09:07:22;;;;;;;;;;;15.10;99.90;;;;;;5099063;28;20276;-85
2021/08/01 09:09:50;;;;;;;;;;;15.30;99.90;;;;;;5099202;28;19924;-86
2021/08/01 09:12:18;;;;;;;;;;;15.50;99.90;;;;;;5098757;28;19924;-85
2021/08/01 09:14:46;;;;;;;;;;;15.70;99.90;;;;;;5098910;28;20365;-85
2021/08/01 09:17:14;;;;;;;;;;;15.90;99.90;;;;;;5099397;28;19928;-85
2021/08/01 09:19:46;;;;;;;;;;;16.00;99.90;;;;;;5098778;28;19924;-87
2021/08/01 09:22:15;;;;;;;;;;;16.10;99.90;;;;;;5099361;28;19955;-87
2021/08/01 09:24:42;;;;;;;;;;;16.20;99.90;;;;;;5099178;28;19928;-82
2021/08/01 09:27:08;;;;;;;;;;;16.30;99.90;;;;;;5098179;28;19924;-83
2021/08/01 09:29:48;;;;;;;;;;;16.20;99.90;;;;;;5098801;28;19946;-81
2021/08/01 09:32:15;;;;;;;;;;;16.30;99.90;;;;;;5098655;28;19935;-80
2021/08/01 09:34:46;;;;;;;;;;;16.30;99.90;;;;;;5098655;28;19924;-81
2021/08/01 09:37:14;;;;;;;;;;;16.30;99.90;;;;;;5098511;28;19935;-80
2021/08/01 09:39:41;;;;;;;;;;;16.30;99.90;;;;;;5098431;28;19924;-79
2021/08/01 09:42:10;;;;;;;;;;;16.30;99.90;;;;;;5098677;28;19924;-80
2021/08/01 09:44:38;;;;;;;;;;;16.10;99.90;;;;;;5098285;28;20372;-79
2021/08/01 09:47:05;;;;;;;;;;;16.00;99.90;;;;;;5098460;28;19978;-79
2021/08/01 09:49:33;;;;;;;;;;;15.90;99.90;;;;;;5098222;28;19928;-79
2021/08/01 09:52:03;;;;;;;;;;;15.80;99.90;;;;;;5098217;28;19924;-79
2021/08/01 09:54:46;;;;;;;;;;;15.70;99.90;;;;;;5098038;28;19924;-79
2021/08/01 09:57:16;;;;;;;;;;;15.60;99.90;;;;;;5097137;28;19924;-79
2021/08/01 09:59:43;;;;;;;;;;;15.50;99.90;;;;;;5098157;28;20346;-80
2021/08/01 10:02:11;;;;;;;;;;;15.40;99.90;;;;;;5097973;28;19924;-80
2021/08/01 10:04:40;;;;;;;;;;;15.40;99.90;;;;;;5097983;28;19924;-82
2021/08/01 10:07:10;;;;;;;;;;;15.50;99.90;;;;;;5097842;28;19950;-82
2021/08/01 10:09:38;;;;;;;;;;;15.50;99.90;;;;;;5097917;28;19934;-82
2021/08/01 10:12:07;;;;;;;;;;;15.70;99.90;;;;;;5097224;28;20361;-82
2021/08/01 10:14:35;;;;;;;;;;;15.80;99.90;;;;;;5097797;28;19924;-82
2021/08/01 10:17:04;;;;;;;;;;;15.80;99.90;;;;;;5097661;28;19925;-82
2021/08/01 10:19:32;;;;;;;;;;;15.80;99.90;;;;;;5097317;28;19924;-82
2021/08/01 10:22:00;;;;;;;;;;;15.70;99.90;;;;;;5097697;28;20342;-82
2021/08/01 10:24:30;;;;;;;;;;;15.60;99.90;;;;;;5097920;28;20269;-79
2021/08/01 10:27:00;;;;;;;;;;;15.60;99.90;;;;;;5097456;28;19925;-81
2021/08/01 10:29:34;;;;;;;;;;;15.60;99.90;;;;;;5097626;28;19946;-82
2021/08/01 10:32:04;;;;;;;;;;;15.60;99.90;;;;;;5094921;28;19924;-81
2021/08/01 10:34:50;;;;;;;;;;;15.70;99.90;;;;;;5097713;28;19996;-82
2021/08/01 10:37:20;;;;;;;;;;;15.80;99.90;;;;;;5097399;28;19924;-82
2021/08/01 10:39:50;;;;;;;;;;;16.00;99.90;;;;;;5097260;28;20052;-82
2021/08/01 10:42:18;;;;;;;;;;;16.10;99.90;;;;;;5097171;28;19928;-83
2021/08/01 10:44:46;;;;;;;;;;;16.10;99.90;;;;;;5097219;28;20305;-83
2021/08/01 10:47:14;;;;;;;;;;;16.20;99.90;;;;;;5097215;28;19928;-83
2021/08/01 10:49:42;;;;;;;;;;;16.20;99.90;;;;;;5096877;28;19924;-82
2021/08/01 10:52:11;;;;;;;;;;;16.20;99.90;;;;;;5096629;28;19924;-82
2021/08/01 10:54:54;;;;;;;;;;;16.30;99.90;;;;;;5096916;28;20005;-83
2021/08/01 10:57:22;;;;;;;;;;;16.20;99.90;;;;;;5096913;28;19977;-82
2021/08/01 11:00:08;;;;;;;;;;;16.20;99.90;;;;;;5096990;28;19946;-82
2021/08/01 11:02:35;;;;;;;;;;;16.20;99.90;;;;;;5096813;28;19924;-82
2021/08/01 11:05:17;;;;;;;;;;;16.30;99.90;;;;;;5100552;28;19950;-80
2021/08/01 11:08:03;;;;;;;;;;;16.40;99.90;;;;;;5095488;28;19938;-82
2021/08/01 11:10:33;;;;;;;;;;;16.50;99.90;;;;;;5098419;28;19924;-81
2021/08/01 11:13:01;;;;;;;;;;;16.60;99.90;;;;;;5096767;28;19923;-82
2021/08/01 11:15:53;;;;;;;;;;;16.80;99.90;;;;;;5096690;28;19925;-82
2021/08/01 11:18:29;;;;;;;;;;;16.90;99.90;;;;;;5090156;28;19946;-81
2021/08/01 11:20:59;;;;;;;;;;;17.10;99.90;;;;;;5090967;28;20345;-80
2021/08/01 11:23:44;;;;;;;;;;;17.20;99.90;;;;;;5095670;28;19924;-83
2021/08/01 11:26:15;;;;;;;;;;;17.30;99.90;;;;;;5096304;28;19924;-82
2021/08/01 11:28:43;;;;;;;;;;;17.30;99.90;;;;;;5092709;28;20366;-83
2021/08/01 11:31:13;;;;;;;;;;;17.30;99.90;;;;;;5092379;28;19924;-83
2021/08/01 11:33:44;;;;;;;;;;;17.40;99.90;;;;;;5096297;28;19979;-83
2021/08/01 11:36:21;;;;;;;;;;;17.40;99.90;;;;;;5096280;28;20019;-81
2021/08/01 11:39:06;;;;;;;;;;;17.30;99.90;;;;;;5096168;28;19924;-76
2021/08/01 11:41:49;;;;;;;;;;;17.20;99.90;;;;;;5095684;28;19924;-83
2021/08/01 11:44:20;;;;;;;;;;;17.30;99.90;;;;;;5092915;28;20254;-80
2021/08/01 11:47:09;;;;;;;;;;;17.20;99.90;;;;;;5095343;28;19924;-80
2021/08/01 11:49:53;;;;;;;;;;;17.30;99.90;;;;;;5093537;28;19985;-78
2021/08/01 11:52:23;;;;;;;;;;;17.30;99.90;;;;;;5093897;28;19924;-79
2021/08/01 11:55:06;;;;;;;;;;;17.30;99.90;;;;;;5094897;28;20346;-79
2021/08/01 11:57:38;;;;;;;;;;;17.40;99.90;;;;;;5095452;28;19930;-79
2021/08/01 12:00:07;;;;;;;;;;;17.50;99.90;;;;;;5095478;28;19997;-82
2021/08/01 12:02:34;;;;;;;;;;;17.50;99.90;;;;;;5095818;28;19924;-82
2021/08/01 12:05:02;;;;;;;;;;;17.60;99.90;;;;;;5109401;28;20330;-80
2021/08/01 12:07:39;;;;;;;;;;;17.60;99.90;;;;;;5102618;28;19935;-82
2021/08/01 12:10:17;;;;;;;;;;;17.60;99.90;;;;;;5090809;28;19932;-83
2021/08/01 12:12:51;;;;;;;;;;;17.70;99.90;;;;;;5095632;28;20329;-81
2021/08/01 12:15:35;;;;;;;;;;;17.80;99.90;;;;;;5095777;28;19947;-82
2021/08/01 12:18:04;;;;;;;;;;;17.90;99.90;;;;;;5095647;28;20366;-81
2021/08/01 12:20:33;;;;;;;;;;;17.90;99.90;;;;;;5095644;28;19953;-82
2021/08/01 12:23:05;;;;;;;;;;;17.90;99.90;;;;;;5095528;28;19932;-81
2021/08/01 12:25:33;;;;;;;;;;;17.90;99.90;;;;;;5095839;28;19931;-81
2021/08/01 12:28:08;;;;;;;;;;;17.90;99.90;;;;;;5095424;28;20372;-81
2021/08/01 12:30:36;;;;;;;;;;;18.00;99.90;;;;;;5095773;28;19938;-81
2021/08/01 12:33:04;;;;;;;;;;;18.00;99.90;;;;;;5094194;28;19924;-81
2021/08/01 12:35:34;;;;;;;;;;;18.00;99.90;;;;;;5095614;28;20011;-81
2021/08/01 12:38:08;;;;;;;;;;;18.00;99.90;;;;;;5096140;27;20362;-81
2021/08/01 12:40:37;;;;;;;;;;;18.00;99.90;;;;;;5095329;28;20406;-81
2021/08/01 12:43:10;;;;;;;;;;;18.00;99.90;;;;;;5095362;28;19935;-79
2021/08/01 12:45:42;;;;;;;;;;;18.00;99.90;;;;;;5095562;28;19963;-82
2021/08/01 12:50:57;;;;;;;;;;;17.90;99.90;;;;;;5075246;28;20266;-82
2021/08/01 12:53:26;;;;;;;;;;;17.80;99.90;;;;;;5080916;28;19924;-82
2021/08/01 12:55:59;;;;;;;;;;;17.80;99.90;;;;;;5094969;28;20455;-81
2021/08/01 12:58:31;;;;;;;;;;;17.70;99.90;;;;;;5095552;28;19928;-82
2021/08/01 13:01:02;;;;;;;;;;;17.80;99.90;;;;;;5095397;28;19924;-83
2021/08/01 13:03:31;;;;;;;;;;;17.70;99.90;;;;;;5094925;28;19924;-83
2021/08/01 13:06:00;;;;;;;;;;;17.80;99.90;;;;;;5092607;28;19934;-82
2021/08/01 13:08:38;;;;;;;;;;;17.80;99.90;;;;;;5095214;28;19986;-81
2021/08/01 13:11:06;;;;;;;;;;;17.80;99.90;;;;;;5094582;28;19930;-81
2021/08/01 13:13:43;;;;;;;;;;;17.90;99.90;;;;;;5094700;28;19925;-81
2021/08/01 13:16:11;;;;;;;;;;;17.90;99.90;;;;;;5093456;28;20003;-81
2021/08/01 13:18:39;;;;;;;;;;;17.90;99.90;;;;;;5094683;28;20379;-81
2021/08/01 13:21:17;;;;;;;;;;;17.90;99.90;;;;;;5094500;28;19924;-82
2021/08/01 13:23:46;;;;;;;;;;;18.00;99.90;;;;;;5093476;28;20262;-82
2021/08/01 13:26:22;;;;;;;;;;;18.00;99.90;;;;;;5094183;28;19934;-81
2021/08/01 13:28:52;;;;;;;;;;;18.10;99.90;;;;;;5095249;28;19924;-81
2021/08/01 13:31:24;;;;;;;;;;;18.20;99.90;;;;;;5094277;28;19931;-81
2021/08/01 13:33:56;;;;;;;;;;;18.20;99.90;;;;;;5094406;28;19934;-81
2021/08/01 13:36:24;;;;;;;;;;;18.30;99.90;;;;;;5094931;28;20019;-82
2021/08/01 13:39:00;;;;;;;;;;;18.30;99.90;;;;;;5091798;28;20353;-81
2021/08/01 13:41:27;;;;;;;;;;;18.30;99.90;;;;;;5090595;28;19989;-83
2021/08/01 13:44:19;;;;;;;;;;;18.30;99.90;;;;;;5091116;28;19932;-81
2021/08/01 13:47:06;;;;;;;;;;;18.20;99.90;;;;;;5079480;28;20234;-78
2021/08/01 13:49:33;;;;;;;;;;;18.10;99.90;;;;;;5075777;28;19925;-78
2021/08/01 13:52:00;;;;;;;;;;;18.10;99.90;;;;;;5077024;28;19925;-78
2021/08/01 13:54:30;;;;;;;;;;;18.20;99.90;;;;;;5077753;28;19928;-78
2021/08/01 13:56:57;;;;;;;;;;;18.20;99.90;;;;;;5077494;28;19935;-78
2021/08/01 13:59:26;;;;;;;;;;;18.30;99.90;;;;;;5077300;28;19924;-78
2021/08/01 14:01:53;;;;;;;;;;;18.30;99.90;;;;;;5077856;28;20378;-79
2021/08/01 14:04:20;;;;;;;;;;;18.40;99.90;;;;;;5077821;28;19924;-78
2021/08/01 14:06:46;;;;;;;;;;;18.40;99.90;;;;;;5077817;28;19976;-78
2021/08/01 14:09:13;;;;;;;;;;;18.30;99.90;;;;;;5077698;28;19929;-78
2021/08/01 14:11:40;;;;;;;;;;;18.30;99.90;;;;;;5077661;28;19950;-78
2021/08/01 14:14:07;;;;;;;;;;;18.30;99.90;;;;;;5078126;28;19932;-78
2021/08/01 14:16:35;;;;;;;;;;;18.30;99.90;;;;;;5077568;28;19932;-78
2021/08/01 14:19:02;;;;;;;;;;;18.30;99.90;;;;;;5077717;28;19928;-78
2021/08/01 14:21:29;;;;;;;;;;;18.40;99.90;;;;;;5077567;28;19954;-78
2021/08/01 14:24:01;;;;;;;;;;;18.40;99.90;;;;;;5077455;28;19924;-78
2021/08/01 14:26:28;;;;;;;;;;;18.40;99.90;;;;;;5077354;28;19925;-78
2021/08/01 14:28:56;;;;;;;;;;;18.40;99.90;;;;;;5077514;28;19925;-84